Time;durP1;ratioP1;P1;durP2;ratioP2;P2;SDS_P1;SDS_P2;PMS_P1;PMS_P2;Temp;Humidity;BMP_temperature;BMP_pressure;BME280_temperature;BME280_humidity;BME280_pressure;Samples;Min_cycle;Max_cycle;Signal;HPM_P1;HPM_P2
2021/01/10 00:00:11;;;;;;;64.90;39.22;;;;;;;;;;4990342;28;20380;-84
2021/01/10 00:02:37;;;;;;;63.05;39.13;;;;;;;;;;4991626;28;20551;-84
2021/01/10 00:05:04;;;;;;;61.08;37.70;;;;;;;;;;4990881;28;20369;-84
2021/01/10 00:07:31;;;;;;;71.18;41.88;;;;;;;;;;4995098;28;20470;-85
2021/01/10 00:09:57;;;;;;;68.45;40.53;;;;;;;;;;5009894;28;20402;-84
2021/01/10 00:12:23;;;;;;;63.00;37.78;;;;;;;;;;5008713;28;20390;-85
2021/01/10 00:14:50;;;;;;;64.32;38.83;;;;;;;;;;5011451;28;20714;-85
2021/01/10 00:17:16;;;;;;;67.63;40.15;;;;;;;;;;5011634;28;20351;-83
2021/01/10 00:19:43;;;;;;;66.82;40.67;;;;;;;;;;5014692;28;20383;-86
2021/01/10 00:22:14;;;;;;;77.63;41.75;;;;;;;;;;5010468;28;20441;-84
2021/01/10 00:24:43;;;;;;;64.95;37.67;;;;;;;;;;5010389;28;20377;-84
2021/01/10 00:27:14;;;;;;;72.80;40.63;;;;;;;;;;5009931;28;20379;-84
2021/01/10 00:29:40;;;;;;;70.70;39.95;;;;;;;;;;5010686;28;20774;-85
2021/01/10 00:32:07;;;;;;;70.97;39.65;;;;;;;;;;5010428;28;20410;-86
2021/01/10 00:34:33;;;;;;;73.95;39.92;;;;;;;;;;5009654;28;20395;-84
2021/01/10 00:36:59;;;;;;;72.72;39.90;;;;;;;;;;5009870;28;20379;-84
2021/01/10 00:39:26;;;;;;;69.53;39.00;;;;;;;;;;5009470;28;20470;-83
2021/01/10 00:41:52;;;;;;;71.85;40.83;;;;;;;;;;5010750;28;20418;-84
2021/01/10 00:44:18;;;;;;;75.15;41.80;;;;;;;;;;5010848;28;20359;-85
2021/01/10 00:46:44;;;;;;;75.20;40.85;;;;;;;;;;5003261;28;20409;-84
2021/01/10 00:49:10;;;;;;;81.03;43.60;;;;;;;;;;4994752;28;20377;-84
2021/01/10 00:51:36;;;;;;;72.25;40.70;;;;;;;;;;4992249;28;20377;-84
2021/01/10 00:54:02;;;;;;;75.20;41.17;;;;;;;;;;4993006;28;20870;-84
2021/01/10 00:56:28;;;;;;;70.18;39.03;;;;;;;;;;4999597;28;20376;-84
2021/01/10 00:58:54;;;;;;;68.10;39.35;;;;;;;;;;5014795;28;20374;-84
2021/01/10 01:01:21;;;;;;;60.13;36.58;;;;;;;;;;5013657;28;20367;-84
2021/01/10 01:03:49;;;;;;;61.00;37.33;;;;;;;;;;5011274;28;20876;-83
2021/01/10 01:06:15;;;;;;;61.90;35.73;;;;;;;;;;5003679;28;20445;-84
2021/01/10 01:08:44;;;;;;;59.42;36.58;;;;;;;;;;5004651;28;20370;-84
2021/01/10 01:11:10;;;;;;;60.80;36.67;;;;;;;;;;4999980;28;20451;-84
2021/01/10 01:13:36;;;;;;;59.20;36.20;;;;;;;;;;5005529;28;20875;-83
2021/01/10 01:16:06;;;;;;;61.28;36.25;;;;;;;;;;5005187;28;20379;-84
2021/01/10 01:18:32;;;;;;;58.17;35.00;;;;;;;;;;5001449;28;20830;-83
2021/01/10 01:20:58;;;;;;;58.92;36.08;;;;;;;;;;5001749;28;20379;-84
2021/01/10 01:23:24;;;;;;;62.67;37.22;;;;;;;;;;5004710;28;20868;-83
2021/01/10 01:25:50;;;;;;;55.53;35.55;;;;;;;;;;4998600;28;20470;-83
2021/01/10 01:28:17;;;;;;;55.17;34.57;;;;;;;;;;4999800;28;20389;-83
2021/01/10 01:30:43;;;;;;;58.47;36.35;;;;;;;;;;5002606;28;20389;-83
2021/01/10 01:33:09;;;;;;;56.95;35.75;;;;;;;;;;5008335;28;20403;-83
2021/01/10 01:35:35;;;;;;;63.40;37.60;;;;;;;;;;5014008;28;20429;-83
2021/01/10 01:38:02;;;;;;;65.25;39.03;;;;;;;;;;5014059;28;20356;-83
2021/01/10 01:40:28;;;;;;;67.03;38.13;;;;;;;;;;5014011;28;20367;-83
2021/01/10 01:42:54;;;;;;;64.18;38.58;;;;;;;;;;5012880;28;20368;-84
2021/01/10 01:45:20;;;;;;;66.32;38.72;;;;;;;;;;5015720;28;20375;-83
2021/01/10 01:47:47;;;;;;;61.50;38.13;;;;;;;;;;5012913;28;20727;-83
2021/01/10 01:50:13;;;;;;;55.45;35.10;;;;;;;;;;4996208;28;20383;-83
2021/01/10 01:52:40;;;;;;;59.97;37.07;;;;;;;;;;5013857;28;20406;-83
2021/01/10 01:55:06;;;;;;;61.90;36.13;;;;;;;;;;5012078;28;20383;-83
2021/01/10 01:57:32;;;;;;;59.42;36.55;;;;;;;;;;5013101;28;20363;-83
2021/01/10 01:59:59;;;;;;;52.03;33.90;;;;;;;;;;4995890;28;20870;-83
2021/01/10 02:02:25;;;;;;;60.83;36.13;;;;;;;;;;5012286;28;20379;-83
2021/01/10 02:05:12;;;;;;;52.00;32.78;;;;;;;;;;5012009;28;20972;-83
2021/01/10 02:07:52;;;;;;;59.25;35.88;;;;;;;;;;5013003;28;21362;-83
2021/01/10 02:10:18;;;;;;;49.38;32.53;;;;;;;;;;5011930;28;20889;-83
2021/01/10 02:12:48;;;;;;;58.78;35.35;;;;;;;;;;5013721;28;20399;-83
2021/01/10 02:15:16;;;;;;;55.45;34.60;;;;;;;;;;5013771;28;20943;-83
2021/01/10 02:17:43;;;;;;;69.07;38.53;;;;;;;;;;5011664;28;20834;-84
2021/01/10 02:20:11;;;;;;;66.45;37.88;;;;;;;;;;5011719;28;20380;-84
2021/01/10 02:22:46;;;;;;;68.70;38.15;;;;;;;;;;5015132;28;20438;-83
2021/01/10 02:25:13;;;;;;;65.75;37.90;;;;;;;;;;5011985;28;20368;-83
2021/01/10 02:27:41;;;;;;;60.40;35.63;;;;;;;;;;5012999;28;20420;-84
2021/01/10 02:30:08;;;;;;;57.75;34.78;;;;;;;;;;5011291;28;20387;-84
2021/01/10 02:32:35;;;;;;;44.28;28.27;;;;;;;;;;4995445;28;20485;-84
2021/01/10 02:35:01;;;;;;;46.85;28.55;;;;;;;;;;5012926;28;20366;-84
2021/01/10 02:37:54;;;;;;;44.40;28.83;;;;;;;;;;5011887;28;20401;-84
2021/01/10 02:40:24;;;;;;;44.92;28.80;;;;;;;;;;5011602;28;20386;-83
2021/01/10 02:43:02;;;;;;;46.20;30.45;;;;;;;;;;5012820;28;20383;-83
2021/01/10 02:45:28;;;;;;;45.93;28.97;;;;;;;;;;5015373;28;20371;-84
2021/01/10 02:47:54;;;;;;;45.35;29.83;;;;;;;;;;5014471;28;20370;-84
2021/01/10 02:50:21;;;;;;;47.85;30.80;;;;;;;;;;5011487;28;20371;-83
2021/01/10 02:52:47;;;;;;;43.78;28.00;;;;;;;;;;5012693;28;20486;-84
2021/01/10 02:55:14;;;;;;;40.20;27.08;;;;;;;;;;5012013;28;20870;-83
2021/01/10 02:57:42;;;;;;;43.42;27.30;;;;;;;;;;5013967;28;20367;-83
2021/01/10 03:00:09;;;;;;;37.63;25.02;;;;;;;;;;4995281;28;20376;-84
2021/01/10 03:02:36;;;;;;;26.60;20.75;;;;;;;;;;5012505;28;20371;-86
2021/01/10 03:05:02;;;;;;;27.83;20.27;;;;;;;;;;5012901;28;20367;-84
2021/01/10 03:07:29;;;;;;;26.00;20.00;;;;;;;;;;5011142;28;20371;-83
2021/01/10 03:09:55;;;;;;;26.38;20.10;;;;;;;;;;5010812;28;20371;-84
2021/01/10 03:12:25;;;;;;;25.10;19.40;;;;;;;;;;5012557;28;20958;-84
2021/01/10 03:14:59;;;;;;;25.20;19.77;;;;;;;;;;4995133;28;20375;-83
2021/01/10 03:17:28;;;;;;;26.75;19.40;;;;;;;;;;5011237;28;20367;-83
2021/01/10 03:19:54;;;;;;;25.60;19.95;;;;;;;;;;5011863;28;20517;-83
2021/01/10 03:22:20;;;;;;;25.80;19.77;;;;;;;;;;5011870;28;20374;-84
2021/01/10 03:24:46;;;;;;;26.52;19.75;;;;;;;;;;5010512;28;20390;-84
2021/01/10 03:27:12;;;;;;;24.33;19.40;;;;;;;;;;5011866;28;20359;-84
2021/01/10 03:29:38;;;;;;;25.50;19.63;;;;;;;;;;5010368;28;20437;-84
2021/01/10 03:32:05;;;;;;;25.55;19.10;;;;;;;;;;5010542;28;20538;-84
2021/01/10 03:34:31;;;;;;;25.73;19.13;;;;;;;;;;5010065;28;20391;-84
2021/01/10 03:36:57;;;;;;;25.83;19.10;;;;;;;;;;5010459;28;20380;-84
2021/01/10 03:39:24;;;;;;;25.95;19.02;;;;;;;;;;5010165;28;20378;-84
2021/01/10 03:41:50;;;;;;;25.10;18.40;;;;;;;;;;5010361;28;20754;-84
2021/01/10 03:44:16;;;;;;;25.58;19.25;;;;;;;;;;5011574;28;20494;-84
2021/01/10 03:46:42;;;;;;;29.30;20.02;;;;;;;;;;5010128;28;20402;-84
2021/01/10 03:49:08;;;;;;;27.38;20.17;;;;;;;;;;5010087;28;20383;-84
2021/01/10 03:51:34;;;;;;;27.95;20.65;;;;;;;;;;5010256;28;20375;-84
2021/01/10 03:54:00;;;;;;;26.13;20.17;;;;;;;;;;5011449;28;20414;-83
2021/01/10 03:56:27;;;;;;;27.45;20.83;;;;;;;;;;5010043;28;20367;-83
2021/01/10 03:58:53;;;;;;;31.45;22.27;;;;;;;;;;5011499;28;20363;-83
2021/01/10 04:01:19;;;;;;;32.03;22.83;;;;;;;;;;5010781;28;20355;-84
2021/01/10 04:03:45;;;;;;;31.40;21.97;;;;;;;;;;5011217;28;20402;-83
2021/01/10 04:06:11;;;;;;;30.77;22.90;;;;;;;;;;5009891;28;20425;-84
2021/01/10 04:08:37;;;;;;;32.30;23.42;;;;;;;;;;5009982;28;20949;-83
2021/01/10 04:11:03;;;;;;;28.40;21.70;;;;;;;;;;5009751;28;20379;-83
2021/01/10 04:13:29;;;;;;;28.95;21.38;;;;;;;;;;5011221;28;20402;-83
2021/01/10 04:15:56;;;;;;;28.58;22.05;;;;;;;;;;5009868;28;20716;-84
2021/01/10 04:18:22;;;;;;;29.13;22.17;;;;;;;;;;5009627;28;20410;-83
2021/01/10 04:20:48;;;;;;;27.88;21.73;;;;;;;;;;5010253;28;20403;-83
2021/01/10 04:23:14;;;;;;;32.22;22.80;;;;;;;;;;5014946;28;20367;-84
2021/01/10 04:25:40;;;;;;;28.80;22.40;;;;;;;;;;5014943;28;20371;-83
2021/01/10 04:28:07;;;;;;;26.15;20.67;;;;;;;;;;5014849;28;20355;-83
2021/01/10 04:30:33;;;;;;;27.33;20.60;;;;;;;;;;4997283;28;20383;-84
2021/01/10 04:32:59;;;;;;;26.73;21.30;;;;;;;;;;5013223;28;20419;-83
2021/01/10 04:35:25;;;;;;;26.40;21.50;;;;;;;;;;5013496;28;20383;-84
2021/01/10 04:37:51;;;;;;;27.70;22.27;;;;;;;;;;5013309;28;20374;-84
2021/01/10 04:40:17;;;;;;;26.00;20.15;;;;;;;;;;5014636;28;20439;-84
2021/01/10 04:42:45;;;;;;;25.05;19.92;;;;;;;;;;5013553;28;20379;-84
2021/01/10 04:45:11;;;;;;;26.52;20.60;;;;;;;;;;5014012;28;20859;-84
2021/01/10 04:47:37;;;;;;;25.70;19.60;;;;;;;;;;5014860;28;20722;-84
2021/01/10 04:50:04;;;;;;;25.20;20.05;;;;;;;;;;5013115;28;20382;-84
2021/01/10 04:52:32;;;;;;;23.48;19.60;;;;;;;;;;5013439;28;21303;-84
2021/01/10 04:55:01;;;;;;;25.27;20.42;;;;;;;;;;5014824;28;20478;-82
2021/01/10 04:57:27;;;;;;;24.50;19.73;;;;;;;;;;4997180;28;20426;-84
2021/01/10 04:59:55;;;;;;;23.25;18.90;;;;;;;;;;5014434;28;20363;-83
2021/01/10 05:02:25;;;;;;;24.10;19.90;;;;;;;;;;5013181;28;20379;-83
2021/01/10 05:04:51;;;;;;;24.35;19.58;;;;;;;;;;5014675;28;20421;-84
2021/01/10 05:07:17;;;;;;;23.85;19.30;;;;;;;;;;4996829;28;20370;-84
2021/01/10 05:09:43;;;;;;;25.83;20.23;;;;;;;;;;5014219;28;20355;-83
2021/01/10 05:12:09;;;;;;;23.05;19.17;;;;;;;;;;5012728;28;20391;-84
2021/01/10 05:14:36;;;;;;;23.70;19.30;;;;;;;;;;5013193;28;20375;-84
2021/01/10 05:17:02;;;;;;;25.33;20.05;;;;;;;;;;5013051;28;20374;-83
2021/01/10 05:19:31;;;;;;;23.17;19.63;;;;;;;;;;5012629;28;20402;-84
2021/01/10 05:22:07;;;;;;;24.10;19.37;;;;;;;;;;5013751;28;20369;-84
2021/01/10 05:24:34;;;;;;;24.70;20.03;;;;;;;;;;5014016;28;20355;-82
2021/01/10 05:27:00;;;;;;;23.35;19.63;;;;;;;;;;5012746;28;20859;-83
2021/01/10 05:29:27;;;;;;;24.92;20.52;;;;;;;;;;5013901;28;20383;-83
2021/01/10 05:31:53;;;;;;;28.27;22.17;;;;;;;;;;5013675;28;20371;-83
2021/01/10 05:34:22;;;;;;;28.73;22.00;;;;;;;;;;5012249;28;20371;-83
2021/01/10 05:36:48;;;;;;;28.60;21.67;;;;;;;;;;5013788;28;20363;-83
2021/01/10 05:39:24;;;;;;;27.58;21.63;;;;;;;;;;5012277;28;20383;-83
2021/01/10 05:41:52;;;;;;;27.05;22.00;;;;;;;;;;5012321;28;20380;-82
2021/01/10 05:44:18;;;;;;;26.38;21.60;;;;;;;;;;5012242;28;20410;-83
2021/01/10 05:46:44;;;;;;;29.73;22.30;;;;;;;;;;5012428;28;20388;-83
2021/01/10 05:49:28;;;;;;;28.35;21.85;;;;;;;;;;5012227;28;20371;-83
2021/01/10 05:51:54;;;;;;;32.23;24.23;;;;;;;;;;5012248;28;20380;-83
2021/01/10 05:54:34;;;;;;;36.60;27.88;;;;;;;;;;5012029;28;20426;-83
2021/01/10 05:57:01;;;;;;;39.00;30.40;;;;;;;;;;5012157;28;20723;-83
2021/01/10 05:59:29;;;;;;;39.45;29.25;;;;;;;;;;5012073;28;20870;-83
2021/01/10 06:01:56;;;;;;;40.47;29.55;;;;;;;;;;5012477;28;20854;-84
2021/01/10 06:04:24;;;;;;;37.20;27.50;;;;;;;;;;5013741;28;20359;-84
2021/01/10 06:06:50;;;;;;;38.95;27.80;;;;;;;;;;5012215;28;20371;-84
2021/01/10 06:09:16;;;;;;;38.35;27.73;;;;;;;;;;5011629;28;20370;-83
2021/01/10 06:11:42;;;;;;;37.75;27.15;;;;;;;;;;5013067;28;20363;-84
2021/01/10 06:14:11;;;;;;;39.80;28.08;;;;;;;;;;5012062;28;20375;-84
2021/01/10 06:16:38;;;;;;;40.20;28.63;;;;;;;;;;5013476;28;20400;-84
2021/01/10 06:19:05;;;;;;;45.60;30.77;;;;;;;;;;5012782;28;20795;-83
2021/01/10 06:21:32;;;;;;;46.65;31.42;;;;;;;;;;5011580;28;20711;-83
2021/01/10 06:23:59;;;;;;;51.05;32.00;;;;;;;;;;5012617;28;20359;-83
2021/01/10 06:26:26;;;;;;;54.53;33.95;;;;;;;;;;5012070;28;20422;-84
2021/01/10 06:28:54;;;;;;;49.22;32.78;;;;;;;;;;5011705;28;20375;-83
2021/01/10 06:31:25;;;;;;;54.15;34.03;;;;;;;;;;5011185;28;20746;-83
2021/01/10 06:33:55;;;;;;;51.40;32.70;;;;;;;;;;5011232;28;20415;-83
2021/01/10 06:36:22;;;;;;;53.10;33.63;;;;;;;;;;5010948;28;20395;-83
2021/01/10 06:38:51;;;;;;;51.10;32.67;;;;;;;;;;5012904;28;20363;-83
2021/01/10 06:41:36;;;;;;;51.15;32.10;;;;;;;;;;5013400;28;20368;-83
2021/01/10 06:44:03;;;;;;;49.20;31.90;;;;;;;;;;5012372;28;20374;-83
2021/01/10 06:46:30;;;;;;;50.83;32.90;;;;;;;;;;5012896;28;20602;-84
2021/01/10 06:48:57;;;;;;;48.07;32.27;;;;;;;;;;5011561;28;20382;-83
2021/01/10 06:51:25;;;;;;;47.58;32.90;;;;;;;;;;5013790;28;20367;-83
2021/01/10 06:53:51;;;;;;;44.25;30.65;;;;;;;;;;5012522;28;20456;-84
2021/01/10 06:56:18;;;;;;;48.30;32.33;;;;;;;;;;5014083;28;20368;-84
2021/01/10 06:59:10;;;;;;;45.33;31.02;;;;;;;;;;5012180;28;20389;-84
2021/01/10 07:01:45;;;;;;;36.13;26.15;;;;;;;;;;4974220;28;20371;-83
2021/01/10 07:04:12;;;;;;;31.50;23.77;;;;;;;;;;5011210;28;20402;-84
2021/01/10 07:06:43;;;;;;;31.10;23.90;;;;;;;;;;5012452;28;20367;-84
2021/01/10 07:09:10;;;;;;;33.90;24.25;;;;;;;;;;5011110;28;20383;-83
2021/01/10 07:11:36;;;;;;;26.05;19.85;;;;;;;;;;5011183;28;20375;-84
2021/01/10 07:14:02;;;;;;;25.58;19.98;;;;;;;;;;5010660;28;20387;-84
2021/01/10 07:16:28;;;;;;;25.35;19.60;;;;;;;;;;5012462;28;20378;-84
2021/01/10 07:18:58;;;;;;;26.63;20.83;;;;;;;;;;5011614;28;20899;-84
2021/01/10 07:21:35;;;;;;;27.33;21.95;;;;;;;;;;5010892;28;20371;-84
2021/01/10 07:24:14;;;;;;;28.20;22.35;;;;;;;;;;5010425;28;20383;-84
2021/01/10 07:26:41;;;;;;;31.10;23.93;;;;;;;;;;4993968;28;20874;-83
2021/01/10 07:29:26;;;;;;;27.25;22.05;;;;;;;;;;5012313;28;20502;-84
2021/01/10 07:31:59;;;;;;;25.40;21.23;;;;;;;;;;5011905;28;20382;-84
2021/01/10 07:34:25;;;;;;;27.55;21.75;;;;;;;;;;5012303;28;20474;-84
2021/01/10 07:36:52;;;;;;;29.58;23.60;;;;;;;;;;5010355;28;20372;-84
2021/01/10 07:39:19;;;;;;;28.20;23.08;;;;;;;;;;5011632;28;20485;-84
2021/01/10 07:41:45;;;;;;;25.07;21.53;;;;;;;;;;5010502;28;20461;-83
2021/01/10 07:44:11;;;;;;;25.08;21.00;;;;;;;;;;5010537;28;20363;-84
2021/01/10 07:46:51;;;;;;;26.50;22.05;;;;;;;;;;5010482;28;20379;-83
2021/01/10 07:49:18;;;;;;;24.27;21.30;;;;;;;;;;5011951;28;20799;-84
2021/01/10 07:51:48;;;;;;;26.98;23.00;;;;;;;;;;5011690;28;20374;-83
2021/01/10 07:54:14;;;;;;;24.95;22.23;;;;;;;;;;5012424;28;20370;-84
2021/01/10 07:56:41;;;;;;;28.90;24.00;;;;;;;;;;5011505;28;20363;-84
2021/01/10 07:59:17;;;;;;;27.13;23.75;;;;;;;;;;4993872;28;20375;-83
2021/01/10 08:01:53;;;;;;;28.10;23.75;;;;;;;;;;5010364;28;20741;-83
2021/01/10 08:04:35;;;;;;;29.05;24.55;;;;;;;;;;5011806;28;20446;-84
2021/01/10 08:07:04;;;;;;;26.27;22.90;;;;;;;;;;5010833;28;20441;-84
2021/01/10 08:09:32;;;;;;;28.95;24.50;;;;;;;;;;5011518;28;20420;-84
2021/01/10 08:11:58;;;;;;;29.52;24.75;;;;;;;;;;5010295;28;20782;-84
2021/01/10 08:14:24;;;;;;;30.37;24.77;;;;;;;;;;5010231;28;20884;-83
2021/01/10 08:16:51;;;;;;;28.13;23.08;;;;;;;;;;5010354;28;20858;-83
2021/01/10 08:19:17;;;;;;;26.13;21.80;;;;;;;;;;5011524;28;20371;-83
2021/01/10 08:21:44;;;;;;;25.25;22.00;;;;;;;;;;5010324;28;20363;-84
2021/01/10 08:24:10;;;;;;;20.98;18.55;;;;;;;;;;5010197;28;20399;-84
2021/01/10 08:26:40;;;;;;;19.80;17.65;;;;;;;;;;5010007;28;20371;-83
2021/01/10 08:29:07;;;;;;;20.65;17.73;;;;;;;;;;5011141;28;20374;-84
2021/01/10 08:31:33;;;;;;;19.20;17.13;;;;;;;;;;5010135;28;20374;-84
2021/01/10 08:34:03;;;;;;;19.70;17.20;;;;;;;;;;5009867;28;20406;-83
2021/01/10 08:36:29;;;;;;;19.05;17.02;;;;;;;;;;5010374;28;20383;-84
2021/01/10 08:38:56;;;;;;;21.33;18.98;;;;;;;;;;5010403;28;20410;-83
2021/01/10 08:41:24;;;;;;;20.90;18.45;;;;;;;;;;5010163;28;20397;-84
2021/01/10 08:43:50;;;;;;;17.85;15.95;;;;;;;;;;5011628;28;20398;-83
2021/01/10 08:46:16;;;;;;;18.02;16.15;;;;;;;;;;5010377;28;20363;-83
2021/01/10 08:48:43;;;;;;;17.15;15.32;;;;;;;;;;5009947;28;20371;-82
2021/01/10 08:51:26;;;;;;;16.00;14.30;;;;;;;;;;5010625;28;20375;-81
2021/01/10 08:53:53;;;;;;;17.70;15.88;;;;;;;;;;5010662;28;20394;-82
2021/01/10 08:56:20;;;;;;;18.17;15.90;;;;;;;;;;5010873;28;20359;-79
2021/01/10 08:58:47;;;;;;;17.50;15.32;;;;;;;;;;5009330;28;20893;-84
2021/01/10 09:01:22;;;;;;;17.03;15.23;;;;;;;;;;5008831;28;20429;-82
2021/01/10 09:03:59;;;;;;;17.53;15.40;;;;;;;;;;5010892;28;20842;-83
2021/01/10 09:06:51;;;;;;;17.40;15.48;;;;;;;;;;5009403;28;20375;-84
2021/01/10 09:09:20;;;;;;;17.02;15.23;;;;;;;;;;5007893;28;20379;-82
2021/01/10 09:11:48;;;;;;;17.75;15.85;;;;;;;;;;5013125;28;20379;-83
2021/01/10 09:14:15;;;;;;;18.92;15.95;;;;;;;;;;5014530;28;20441;-84
2021/01/10 09:16:41;;;;;;;18.58;15.52;;;;;;;;;;5014015;28;20379;-83
2021/01/10 09:19:08;;;;;;;17.52;15.73;;;;;;;;;;5012907;28;20383;-83
2021/01/10 09:21:34;;;;;;;17.87;15.93;;;;;;;;;;5014902;28;20371;-83
2021/01/10 09:24:01;;;;;;;19.55;16.55;;;;;;;;;;5013359;28;20885;-81
2021/01/10 09:26:28;;;;;;;19.10;16.53;;;;;;;;;;5014802;28;20359;-84
2021/01/10 09:28:54;;;;;;;17.73;15.60;;;;;;;;;;5013383;28;20418;-86
2021/01/10 09:31:20;;;;;;;18.80;16.77;;;;;;;;;;5014826;28;20376;-87
2021/01/10 09:33:54;;;;;;;19.98;17.23;;;;;;;;;;5012679;28;20987;-85
2021/01/10 09:36:21;;;;;;;18.50;16.50;;;;;;;;;;5012959;28;20383;-86
2021/01/10 09:38:57;;;;;;;22.98;19.05;;;;;;;;;;5014869;28;20418;-82
2021/01/10 09:41:23;;;;;;;21.83;18.02;;;;;;;;;;5012836;28;20380;-84
2021/01/10 09:43:50;;;;;;;21.42;17.17;;;;;;;;;;4996362;28;20382;-84
2021/01/10 09:46:32;;;;;;;19.55;16.67;;;;;;;;;;5013222;28;20734;-84
2021/01/10 09:49:00;;;;;;;18.55;15.10;;;;;;;;;;5009647;28;20375;-84
2021/01/10 09:51:34;;;;;;;18.73;15.65;;;;;;;;;;5005736;28;20359;-84
2021/01/10 09:54:14;;;;;;;17.30;15.02;;;;;;;;;;5000557;28;20921;-84
2021/01/10 09:56:40;;;;;;;18.67;15.80;;;;;;;;;;5003008;28;20426;-83
2021/01/10 09:59:26;;;;;;;18.90;16.67;;;;;;;;;;4999806;28;20383;-83
2021/01/10 10:01:53;;;;;;;18.88;16.20;;;;;;;;;;5004156;28;20372;-83
2021/01/10 10:04:26;;;;;;;17.77;15.30;;;;;;;;;;5002497;28;20460;-84
2021/01/10 10:06:52;;;;;;;17.45;15.27;;;;;;;;;;4989699;28;20379;-84
2021/01/10 10:09:18;;;;;;;17.77;15.83;;;;;;;;;;4999654;28;20462;-84
2021/01/10 10:11:44;;;;;;;17.77;15.85;;;;;;;;;;5001792;28;20895;-84
2021/01/10 10:14:11;;;;;;;18.38;16.08;;;;;;;;;;4992381;28;20408;-84
2021/01/10 10:16:37;;;;;;;17.98;14.45;;;;;;;;;;4998558;28;20375;-83
2021/01/10 10:19:03;;;;;;;15.00;13.25;;;;;;;;;;5011160;28;20383;-84
2021/01/10 10:21:29;;;;;;;17.27;15.18;;;;;;;;;;5011689;28;20375;-86
2021/01/10 10:23:55;;;;;;;16.98;14.70;;;;;;;;;;5008768;28;20408;-88
2021/01/10 10:26:21;;;;;;;16.13;14.43;;;;;;;;;;5013149;28;20386;-84
2021/01/10 10:28:47;;;;;;;18.45;15.30;;;;;;;;;;5006696;28;21000;-89
2021/01/10 10:31:13;;;;;;;17.85;15.48;;;;;;;;;;5012448;28;20387;-88
2021/01/10 10:33:39;;;;;;;17.48;14.40;;;;;;;;;;5013273;28;20889;-85
2021/01/10 10:36:06;;;;;;;17.23;14.85;;;;;;;;;;5014375;28;20375;-87
2021/01/10 10:38:34;;;;;;;16.95;14.80;;;;;;;;;;5019128;28;20459;-89
2021/01/10 10:41:00;;;;;;;19.27;15.83;;;;;;;;;;5014028;28;20881;-85
2021/01/10 10:43:26;;;;;;;18.52;16.13;;;;;;;;;;5012717;28;20382;-88
2021/01/10 10:45:55;;;;;;;17.27;15.18;;;;;;;;;;5013654;28;20387;-86
2021/01/10 10:48:21;;;;;;;18.90;16.55;;;;;;;;;;5013203;28;20379;-88
2021/01/10 10:50:49;;;;;;;18.45;15.70;;;;;;;;;;5011132;28;20402;-89
2021/01/10 10:53:15;;;;;;;20.80;17.42;;;;;;;;;;5018436;28;20422;-88
2021/01/10 10:55:41;;;;;;;20.52;16.83;;;;;;;;;;5012382;28;20375;-87
2021/01/10 10:58:09;;;;;;;21.33;17.13;;;;;;;;;;5012544;28;20375;-86
2021/01/10 11:00:35;;;;;;;21.75;17.73;;;;;;;;;;5011688;28;20453;-89
2021/01/10 11:03:01;;;;;;;22.17;17.67;;;;;;;;;;5011252;28;20414;-87
2021/01/10 11:05:27;;;;;;;18.13;15.88;;;;;;;;;;5011133;28;20390;-89
2021/01/10 11:07:53;;;;;;;18.33;15.32;;;;;;;;;;5011820;28;20462;-89
2021/01/10 11:10:19;;;;;;;16.83;14.95;;;;;;;;;;5012764;28;20379;-87
2021/01/10 11:12:45;;;;;;;16.67;14.52;;;;;;;;;;5011020;28;20407;-88
2021/01/10 11:15:13;;;;;;;17.70;15.80;;;;;;;;;;5007800;28;20373;-86
2021/01/10 11:17:39;;;;;;;19.33;16.38;;;;;;;;;;4996943;28;20383;-86
2021/01/10 11:20:05;;;;;;;19.37;16.70;;;;;;;;;;4997877;28;20420;-86
2021/01/10 11:22:35;;;;;;;18.35;16.23;;;;;;;;;;4992697;28;20938;-85
2021/01/10 11:25:05;;;;;;;19.45;16.77;;;;;;;;;;4992712;28;20365;-84
2021/01/10 11:27:31;;;;;;;18.77;16.15;;;;;;;;;;4992752;28;20377;-84
2021/01/10 11:29:57;;;;;;;18.25;15.70;;;;;;;;;;4974165;28;20381;-83
2021/01/10 11:32:23;;;;;;;18.48;16.48;;;;;;;;;;5005829;28;20414;-87
2021/01/10 11:34:50;;;;;;;18.80;16.77;;;;;;;;;;5010482;28;20448;-84
2021/01/10 11:37:17;;;;;;;17.60;14.98;;;;;;;;;;5001743;28;20357;-84
2021/01/10 11:39:43;;;;;;;18.30;15.48;;;;;;;;;;4999816;28;20371;-82
2021/01/10 11:42:15;;;;;;;18.13;14.60;;;;;;;;;;5000990;28;20379;-88
2021/01/10 11:44:41;;;;;;;18.65;15.05;;;;;;;;;;5003925;28;20373;-85
2021/01/10 11:47:13;;;;;;;17.20;15.00;;;;;;;;;;5001246;28;20365;-87
2021/01/10 11:49:41;;;;;;;17.57;15.33;;;;;;;;;;5001231;28;20394;-88
2021/01/10 11:52:11;;;;;;;18.92;16.25;;;;;;;;;;5000473;28;20399;-86
2021/01/10 11:54:40;;;;;;;17.40;15.52;;;;;;;;;;4998382;28;20447;-93
2021/01/10 11:57:06;;;;;;;19.08;16.38;;;;;;;;;;4982069;28;20520;-85
2021/01/10 11:59:32;;;;;;;18.60;16.27;;;;;;;;;;4986248;28;20412;-88
2021/01/10 12:01:58;;;;;;;19.52;16.10;;;;;;;;;;5007537;28;20458;-87
2021/01/10 12:04:25;;;;;;;18.80;16.17;;;;;;;;;;5006443;28;20367;-88
2021/01/10 12:06:58;;;;;;;17.40;15.38;;;;;;;;;;5008436;28;20383;-86
2021/01/10 12:09:24;;;;;;;18.27;16.27;;;;;;;;;;5009432;28;20880;-86
2021/01/10 12:11:50;;;;;;;19.25;16.73;;;;;;;;;;5005667;28;20412;-84
2021/01/10 12:14:18;;;;;;;21.95;18.05;;;;;;;;;;4997261;28;20408;-87
2021/01/10 12:16:46;;;;;;;19.83;17.17;;;;;;;;;;5000727;28;20379;-84
2021/01/10 12:19:13;;;;;;;21.92;18.70;;;;;;;;;;5004476;28;20402;-85
2021/01/10 12:21:39;;;;;;;19.98;17.80;;;;;;;;;;5004846;28;20384;-88
2021/01/10 12:24:05;;;;;;;19.95;17.63;;;;;;;;;;5000863;28;20407;-89
2021/01/10 12:26:32;;;;;;;19.63;17.52;;;;;;;;;;5002724;28;20503;-90
2021/01/10 12:28:59;;;;;;;20.27;17.73;;;;;;;;;;4988185;28;20397;-91
2021/01/10 12:31:26;;;;;;;19.73;17.40;;;;;;;;;;5007607;28;20410;-89
2021/01/10 12:33:58;;;;;;;18.92;16.92;;;;;;;;;;5005686;28;20403;-90
2021/01/10 12:36:26;;;;;;;20.90;18.00;;;;;;;;;;4998584;28;20379;-91
2021/01/10 12:38:55;;;;;;;19.17;16.95;;;;;;;;;;4997459;28;20375;-88
2021/01/10 12:41:23;;;;;;;19.75;17.50;;;;;;;;;;5002696;28;21781;-89
2021/01/10 12:43:49;;;;;;;20.58;18.48;;;;;;;;;;5003415;28;20395;-90
2021/01/10 12:46:15;;;;;;;20.67;18.38;;;;;;;;;;5008645;28;20465;-90
2021/01/10 12:48:41;;;;;;;22.67;19.07;;;;;;;;;;5010870;28;20376;-90
2021/01/10 12:51:39;;;;;;;;;;;;;;;;;;;;;
2021/01/10 12:54:09;;;;;;;23.58;20.45;;;;;;;;;;5010394;28;20486;-93
2021/01/10 12:56:38;;;;;;;23.17;20.05;;;;;;;;;;5021225;28;20394;-90
2021/01/10 12:59:11;;;;;;;21.37;19.07;;;;;;;;;;5005093;28;20385;-93
2021/01/10 13:01:37;;;;;;;23.37;20.47;;;;;;;;;;5006412;28;20977;-90
2021/01/10 13:04:06;;;;;;;23.67;20.83;;;;;;;;;;5006796;28;20424;-90
2021/01/10 13:06:35;;;;;;;24.50;20.80;;;;;;;;;;5016015;28;20386;-90
2021/01/10 13:09:01;;;;;;;26.35;21.33;;;;;;;;;;5013810;28;20378;-89
2021/01/10 13:11:27;;;;;;;23.90;21.23;;;;;;;;;;5005297;28;20732;-91
2021/01/10 13:13:53;;;;;;;24.75;21.48;;;;;;;;;;4985267;28;20414;-92
2021/01/10 13:16:19;;;;;;;24.50;21.40;;;;;;;;;;5007817;28;21008;-92
2021/01/10 13:18:45;;;;;;;26.88;22.60;;;;;;;;;;5006735;28;20396;-88
2021/01/10 13:21:14;;;;;;;24.80;22.10;;;;;;;;;;5010130;28;20365;-89
2021/01/10 13:23:43;;;;;;;27.30;23.25;;;;;;;;;;5003400;28;20757;-91
2021/01/10 13:26:10;;;;;;;24.98;22.27;;;;;;;;;;5002243;28;20726;-91
2021/01/10 13:28:39;;;;;;;25.75;22.85;;;;;;;;;;5005543;28;20408;-89
2021/01/10 13:31:05;;;;;;;25.70;22.92;;;;;;;;;;4999111;28;20400;-90
2021/01/10 13:33:31;;;;;;;25.40;22.67;;;;;;;;;;5008335;28;20411;-91
2021/01/10 13:35:57;;;;;;;26.23;22.48;;;;;;;;;;5003332;28;20375;-90
2021/01/10 13:38:23;;;;;;;26.55;22.20;;;;;;;;;;4998213;28;20465;-89
2021/01/10 13:40:52;;;;;;;23.58;21.08;;;;;;;;;;5010895;28;20380;-89
2021/01/10 13:43:18;;;;;;;24.25;21.63;;;;;;;;;;5005638;28;20379;-91
2021/01/10 13:45:45;;;;;;;24.00;21.17;;;;;;;;;;4995151;28;20377;-87
2021/01/10 13:48:17;;;;;;;25.17;21.77;;;;;;;;;;4998892;28;20380;-91
2021/01/10 13:50:48;;;;;;;24.55;20.45;;;;;;;;;;5006211;28;20409;-87
2021/01/10 13:53:15;;;;;;;25.38;22.02;;;;;;;;;;5015041;28;20391;-88
2021/01/10 13:55:41;;;;;;;24.23;21.17;;;;;;;;;;5020089;28;20383;-90
2021/01/10 13:58:07;;;;;;;26.17;22.17;;;;;;;;;;5018274;28;20382;-91
2021/01/10 14:00:33;;;;;;;25.43;21.90;;;;;;;;;;5020243;28;20983;-85
2021/01/10 14:02:59;;;;;;;24.80;21.25;;;;;;;;;;5016782;28;20470;-85
2021/01/10 14:05:26;;;;;;;27.83;23.33;;;;;;;;;;5012238;28;20798;-88
2021/01/10 14:07:52;;;;;;;27.45;23.50;;;;;;;;;;5014732;28;20368;-90
2021/01/10 14:10:18;;;;;;;25.40;21.90;;;;;;;;;;5022995;28;20395;-88
2021/01/10 14:12:51;;;;;;;27.55;23.90;;;;;;;;;;5020179;28;20402;-88
2021/01/10 14:15:17;;;;;;;30.55;24.98;;;;;;;;;;5020960;28;20376;-87
2021/01/10 14:17:43;;;;;;;30.83;25.73;;;;;;;;;;5012972;28;20387;-88
2021/01/10 14:20:09;;;;;;;29.80;25.65;;;;;;;;;;5012846;28;20372;-88
2021/01/10 14:22:38;;;;;;;31.30;26.03;;;;;;;;;;5013126;28;20387;-90